Time;durP1;ratioP1;P1;durP2;ratioP2;P2;SDS_P1;SDS_P2;PMS_P1;PMS_P2;Temp;Humidity;BMP_temperature;BMP_pressure;BME280_temperature;BME280_humidity;BME280_pressure;Samples;Min_cycle;Max_cycle;Signal;HPM_P1;HPM_P2
2023/06/23 00:01:17;;;;;;;15.30;5.18;;;;;;;18.99;89.50;98257.69;4975800;28;20061;-78
2023/06/23 00:03:45;;;;;;;10.82;4.10;;;;;;;19.20;91.09;98258.66;4975642;28;20042;-78
2023/06/23 00:06:11;;;;;;;6.15;4.18;;;;;;;19.40;89.42;98255.34;4954032;28;20069;-78
2023/06/23 00:08:40;;;;;;;9.80;4.18;;;;;;;19.20;88.65;98266.78;4971249;28;20506;-79
2023/06/23 00:11:10;;;;;;;8.63;4.43;;;;;;;19.50;88.39;98256.94;4978871;28;20045;-79
2023/06/23 00:13:36;;;;;;;5.75;4.50;;;;;;;19.24;89.34;98256.91;4979261;28;20037;-81
2023/06/23 00:16:04;;;;;;;6.03;4.13;;;;;;;19.09;89.52;98243.84;4979917;28;20046;-78
2023/06/23 00:18:36;;;;;;;11.15;4.85;;;;;;;19.52;88.03;98254.69;4974971;28;20085;-78
2023/06/23 00:21:06;;;;;;;10.63;5.13;;;;;;;19.20;88.94;98234.31;4978673;28;20050;-78
2023/06/23 00:23:32;;;;;;;13.85;5.38;;;;;;;18.62;90.79;98236.66;4954663;28;20039;-78
2023/06/23 00:25:58;;;;;;;7.05;4.65;;;;;;;18.95;91.36;98227.00;4967158;28;20061;-79
2023/06/23 00:28:24;;;;;;;10.88;4.38;;;;;;;19.07;90.35;98231.75;4966792;28;20034;-79
2023/06/23 00:30:50;;;;;;;11.40;4.78;;;;;;;19.25;88.98;98236.06;4972486;28;20043;-79
2023/06/23 00:33:17;;;;;;;16.42;5.75;;;;;;;19.32;88.48;98247.19;4965848;28;20040;-79
2023/06/23 00:35:42;;;;;;;7.15;4.57;;;;;;;19.43;88.10;98251.19;4970888;28;20034;-78
2023/06/23 00:38:07;;;;;;;14.30;6.20;;;;;;;19.33;88.28;98244.16;4970699;28;20125;-79
2023/06/23 00:40:34;;;;;;;12.13;5.75;;;;;;;18.83;90.36;98231.44;4972269;28;20088;-78
2023/06/23 00:42:59;;;;;;;9.23;4.75;;;;;;;19.02;90.52;98234.63;4967557;28;20038;-78
2023/06/23 00:45:25;;;;;;;7.60;5.43;;;;;;;19.47;88.39;98256.75;4968134;28;20037;-78
2023/06/23 00:47:51;;;;;;;7.72;4.45;;;;;;;19.32;89.11;98258.03;4966751;28;20462;-79
2023/06/23 00:50:21;;;;;;;6.05;5.22;;;;;;;19.15;89.34;98256.13;4969000;28;20030;-79
2023/06/23 00:52:51;;;;;;;11.80;5.38;;;;;;;19.29;88.72;98245.91;4966348;28;20026;-79
2023/06/23 00:55:25;;;;;;;10.20;5.82;;;;;;;19.77;86.85;98263.88;4969914;28;20058;-79
2023/06/23 00:57:52;;;;;;;9.30;7.03;;;;;;;19.17;89.18;98259.31;4969139;28;20060;-79
2023/06/23 01:00:19;;;;;;;14.05;6.30;;;;;;;18.92;90.83;98261.97;4971167;28;20266;-79
2023/06/23 01:02:49;;;;;;;8.90;5.70;;;;;;;18.68;92.72;98257.00;4969004;28;20414;-79
2023/06/23 01:05:19;;;;;;;7.88;5.40;;;;;;;19.10;91.03;98242.75;4971792;28;20038;-79
2023/06/23 01:07:48;;;;;;;14.13;8.02;;;;;;;18.77;92.26;98246.22;4968242;28;20058;-79
2023/06/23 01:10:37;;;;;;;13.48;7.45;;;;;;;18.56;93.24;98243.31;4968149;28;20026;-79
2023/06/23 01:13:12;;;;;;;7.00;6.05;;;;;;;19.19;90.91;98248.16;4973668;28;20062;-79
2023/06/23 01:15:56;;;;;;;11.50;5.77;;;;;;;19.26;89.98;98230.31;4969427;28;20038;-79
2023/06/23 01:18:50;;;;;;;17.10;7.55;;;;;;;19.41;89.44;98243.41;4970654;28;20033;-79
2023/06/23 01:21:19;;;;;;;9.75;6.45;;;;;;;19.10;91.45;98241.94;4973209;28;20019;-78
2023/06/23 01:24:26;;;;;;;12.27;6.70;;;;;;;19.36;89.56;98240.84;4971992;28;20387;-78
2023/06/23 01:27:10;;;;;;;;;;;;;;;19.67;88.66;98245.25;4969843;28;20557;-78
2023/06/23 01:29:40;;;;;;;8.70;5.68;;;;;;;19.46;88.70;98238.94;4982004;28;19917;-78
2023/06/23 01:32:20;;;;;;;10.02;6.47;;;;;;;18.88;92.13;98232.06;4970944;28;20171;-78
2023/06/23 01:34:50;;;;;;;13.77;8.20;;;;;;;18.90;92.75;98243.38;4978791;28;20028;-78
2023/06/23 01:37:21;;;;;;;14.75;7.38;;;;;;;18.96;91.92;98242.09;4977038;28;20490;-78
2023/06/23 01:40:03;;;;;;;14.65;8.50;;;;;;;18.86;92.34;98242.41;4977005;28;20034;-78
2023/06/23 01:42:34;;;;;;;12.63;8.18;;;;;;;18.73;93.79;98256.06;4971462;28;20495;-78
2023/06/23 01:45:03;;;;;;;10.98;7.47;;;;;;;18.95;93.27;98256.75;4958884;28;20030;-77
2023/06/23 01:47:33;;;;;;;11.50;6.57;;;;;;;19.59;89.61;98249.59;4976846;28;20497;-78
2023/06/23 01:50:02;;;;;;;9.55;6.80;;;;;;;19.77;87.89;98244.91;4970081;28;20153;-78
2023/06/23 01:52:29;;;;;;;9.00;5.95;;;;;;;19.95;86.86;98249.16;4970006;28;20128;-78
2023/06/23 01:54:57;;;;;;;8.75;6.00;;;;;;;19.80;87.85;98252.41;4970031;28;20105;-78
2023/06/23 01:57:25;;;;;;;11.48;6.65;;;;;;;19.66;88.36;98251.81;4971563;28;20487;-78
2023/06/23 01:59:52;;;;;;;9.00;6.10;;;;;;;19.30;90.98;98247.53;4975683;28;20505;-77
2023/06/23 02:02:19;;;;;;;11.82;6.55;;;;;;;19.48;89.98;98252.94;4967829;28;20037;-78
2023/06/23 02:04:49;;;;;;;12.35;6.78;;;;;;;19.52;89.65;98243.88;4966955;28;20479;-78
2023/06/23 02:07:16;;;;;;;12.65;7.82;;;;;;;19.52;88.88;98243.06;4975635;28;20026;-77
2023/06/23 02:09:43;;;;;;;19.40;8.15;;;;;;;19.08;92.29;98249.59;4965156;28;20041;-77
2023/06/23 02:12:11;;;;;;;12.40;6.00;;;;;;;19.67;89.65;98245.25;4969643;28;20049;-78
2023/06/23 02:14:38;;;;;;;22.45;9.27;;;;;;;19.30;91.08;98242.13;4977149;28;20035;-78
2023/06/23 02:17:10;;;;;;;14.32;10.57;;;;;;;18.56;95.93;98236.00;4979069;28;20064;-77
2023/06/23 02:19:39;;;;;;;11.48;8.45;;;;;;;19.17;92.53;98232.25;4973227;28;20039;-78
2023/06/23 02:22:09;;;;;;;10.00;6.30;;;;;;;19.67;89.42;98232.53;4951189;28;20062;-80
2023/06/23 02:24:37;;;;;;;17.98;10.23;;;;;;;18.99;92.65;98224.44;4973071;28;20414;-77
2023/06/23 02:27:03;;;;;;;13.82;7.70;;;;;;;19.43;90.85;98241.19;4976854;28;20754;-77
2023/06/23 02:29:30;;;;;;;17.52;11.65;;;;;;;18.42;96.33;98237.19;4960092;28;20093;-78
2023/06/23 02:31:55;;;;;;;16.13;7.90;;;;;;;19.01;94.24;98233.84;4969846;28;20030;-77
2023/06/23 02:34:20;;;;;;;9.30;7.32;;;;;;;19.41;90.76;98243.41;4974382;28;20037;-77
2023/06/23 02:36:48;;;;;;;15.00;9.30;;;;;;;18.99;93.75;98229.84;4970321;28;20495;-78
2023/06/23 02:39:18;;;;;;;11.68;8.82;;;;;;;18.51;94.69;98246.97;4975965;28;20174;-78
2023/06/23 02:41:49;;;;;;;11.85;6.82;;;;;;;19.34;91.46;98236.84;4973201;28;20029;-77
2023/06/23 02:44:18;;;;;;;14.65;6.90;;;;;;;19.72;89.33;98240.50;4954021;28;20030;-77
2023/06/23 02:46:48;;;;;;;8.32;7.32;;;;;;;19.71;88.85;98235.38;4961940;28;20027;-79
2023/06/23 02:49:18;;;;;;;8.77;6.38;;;;;;;19.84;88.78;98239.81;4974589;28;20482;-77
2023/06/23 02:51:45;;;;;;;7.95;6.40;;;;;;;19.87;88.07;98250.00;4976245;28;20030;-79
2023/06/23 02:54:17;;;;;;;6.40;4.80;;;;;;;19.87;87.94;98244.59;4978477;28;20030;-77
2023/06/23 02:56:45;;;;;;;7.50;4.03;;;;;;;19.87;87.94;98247.28;4963963;28;20037;-77
2023/06/23 02:59:15;;;;;;;6.78;4.00;;;;;;;19.80;88.09;98233.44;4979024;28;20122;-78
2023/06/23 03:01:45;;;;;;;8.63;3.67;;;;;;;19.83;87.61;98252.53;4978901;28;20431;-77
2023/06/23 03:04:11;;;;;;;6.55;3.30;;;;;;;19.87;87.49;98247.28;4978855;28;20121;-78
2023/06/23 03:06:37;;;;;;;4.03;3.15;;;;;;;19.79;86.89;98256.25;4977300;28;20039;-77
2023/06/23 03:09:03;;;;;;;3.50;2.58;;;;;;;19.83;87.00;98257.19;4978203;28;20045;-77
2023/06/23 03:11:36;;;;;;;3.67;2.45;;;;;;;19.77;87.14;98261.97;4977393;28;20112;-78
2023/06/23 03:14:02;;;;;;;4.15;2.00;;;;;;;19.84;86.66;98264.19;4980599;28;20122;-78
2023/06/23 03:16:38;;;;;;;3.30;2.35;;;;;;;19.81;86.65;98267.53;4962587;28;20517;-77
2023/06/23 03:19:26;;;;;;;;;;;;;;;19.93;86.53;98278.50;4976533;28;20455;-79
2023/06/23 03:22:00;;;;;;;2.20;1.95;;;;;;;19.74;86.44;98287.00;4974868;28;20008;-77
2023/06/23 03:24:30;;;;;;;4.05;2.05;;;;;;;19.86;86.38;98281.69;4983479;28;20030;-77
2023/06/23 03:26:58;;;;;;;3.15;1.85;;;;;;;19.88;85.98;98274.03;4979621;28;20034;-78
2023/06/23 03:29:29;;;;;;;3.22;1.90;;;;;;;19.92;85.97;98274.22;4973023;28;20034;-78
2023/06/23 03:31:58;;;;;;;2.50;2.10;;;;;;;19.91;85.74;98273.41;4978540;28;20038;-78
2023/06/23 03:34:30;;;;;;;3.28;1.90;;;;;;;19.94;85.95;98288.22;4978090;28;20030;-78
2023/06/23 03:36:56;;;;;;;4.43;1.73;;;;;;;19.94;85.70;98290.94;4966172;28;20030;-78
2023/06/23 03:39:26;;;;;;;3.67;2.45;;;;;;;19.91;85.91;98292.38;4966402;28;20049;-77
2023/06/23 03:41:51;;;;;;;5.00;2.45;;;;;;;19.93;86.14;98297.47;4953087;28;20042;-77
2023/06/23 03:44:35;;;;;;;4.75;1.90;;;;;;;19.78;86.11;98285.22;4977687;28;20035;-78
2023/06/23 03:47:09;;;;;;;3.47;1.83;;;;;;;19.97;85.69;98303.81;4985191;28;20037;-78
2023/06/23 03:49:41;;;;;;;2.20;1.48;;;;;;;19.92;85.67;98302.06;4986958;28;20074;-78
2023/06/23 03:52:09;;;;;;;2.80;1.98;;;;;;;19.85;85.66;98301.00;4977110;28;20027;-78
2023/06/23 03:54:40;;;;;;;1.75;1.60;;;;;;;19.92;85.66;98312.13;4982752;28;20031;-78
2023/06/23 03:57:08;;;;;;;3.45;1.98;;;;;;;19.90;86.15;98311.63;4989796;28;21440;-78
2023/06/23 03:59:37;;;;;;;3.55;2.20;;;;;;;19.88;85.76;98308.47;4993655;28;20060;-79
2023/06/23 04:02:07;;;;;;;4.40;1.90;;;;;;;19.76;86.69;98298.31;4977293;28;20042;-77
2023/06/23 04:04:34;;;;;;;3.85;2.25;;;;;;;19.65;86.67;98298.94;4973154;28;20031;-79
2023/06/23 04:07:03;;;;;;;3.58;1.92;;;;;;;19.67;87.00;98308.34;4977818;28;20030;-78
2023/06/23 04:09:31;;;;;;;2.47;1.90;;;;;;;19.73;86.71;98312.47;4983116;28;20050;-77
2023/06/23 04:11:59;;;;;;;5.90;2.40;;;;;;;19.45;86.93;98294.97;4985922;28;20109;-78
2023/06/23 04:14:26;;;;;;;5.28;2.25;;;;;;;19.43;87.50;98302.63;4982254;28;20473;-78
2023/06/23 04:16:55;;;;;;;2.03;1.83;;;;;;;19.64;86.70;98284.59;4970744;28;20023;-78
2023/06/23 04:19:27;;;;;;;4.07;2.30;;;;;;;19.45;87.38;98297.69;4958728;28;20093;-78
2023/06/23 04:21:54;;;;;;;2.05;1.77;;;;;;;19.70;86.42;98309.63;4979770;28;20125;-78
2023/06/23 04:24:22;;;;;;;3.42;2.00;;;;;;;19.68;86.06;98315.34;4979102;28;20030;-78
2023/06/23 04:26:54;;;;;;;2.75;1.88;;;;;;;19.63;86.31;98298.47;4982236;28;20128;-78
2023/06/23 04:29:24;;;;;;;7.85;2.35;;;;;;;19.07;89.37;98312.91;4972559;28;20043;-78
2023/06/23 04:31:52;;;;;;;2.28;1.92;;;;;;;19.25;88.71;98315.31;4966627;28;20117;-78
2023/06/23 04:34:18;;;;;;;5.32;2.40;;;;;;;19.15;88.67;98314.84;4980970;28;20033;-78
2023/06/23 04:36:51;;;;;;;3.80;2.00;;;;;;;19.39;87.50;98326.84;4981299;28;20422;-78
2023/06/23 04:39:27;;;;;;;2.80;1.98;;;;;;;19.03;89.74;98322.78;4983028;28;20045;-78
2023/06/23 04:41:56;;;;;;;2.80;2.15;;;;;;;19.34;87.98;98326.16;4980155;28;20030;-78
2023/06/23 04:44:27;;;;;;;3.30;1.83;;;;;;;19.33;88.07;98333.47;4979487;28;20033;-78
2023/06/23 04:46:57;;;;;;;1.85;1.70;;;;;;;19.44;87.60;98333.97;4976301;28;20030;-78
2023/06/23 04:49:27;;;;;;;3.40;1.50;;;;;;;19.53;87.11;98334.78;4982526;28;20030;-78
2023/06/23 04:51:54;;;;;;;1.80;1.65;;;;;;;19.48;86.90;98309.78;4978427;28;20057;-79
2023/06/23 04:54:34;;;;;;;12.80;2.30;;;;;;;19.41;87.58;98324.63;4981721;28;20038;-79
2023/06/23 04:57:02;;;;;;;2.72;1.83;;;;;;;19.33;87.68;98332.69;4980223;28;20030;-78
2023/06/23 04:59:33;;;;;;;3.95;1.52;;;;;;;19.49;87.11;98327.63;4974270;28;20061;-78
2023/06/23 05:02:01;;;;;;;3.38;1.60;;;;;;;19.60;86.46;98332.41;4984088;28;20405;-78
2023/06/23 05:04:28;;;;;;;1.50;1.40;;;;;;;19.62;86.55;98326.66;4979483;28;20039;-78
2023/06/23 05:06:54;;;;;;;1.60;1.50;;;;;;;19.48;87.07;98328.75;4978159;28;20181;-78
2023/06/23 05:09:22;;;;;;;3.63;1.60;;;;;;;19.21;89.10;98340.63;4969792;28;20121;-78
2023/06/23 05:11:50;;;;;;;2.05;1.88;;;;;;;19.54;87.30;98349.91;4981069;28;20033;-77
2023/06/23 05:14:18;;;;;;;2.53;1.60;;;;;;;19.52;87.70;98362.19;4971993;28;20101;-77
2023/06/23 05:16:45;;;;;;;1.85;1.25;;;;;;;19.30;88.71;98361.19;4964906;28;20049;-77
2023/06/23 05:19:11;;;;;;;1.45;1.27;;;;;;;19.29;88.64;98359.59;4982333;28;20093;-78
2023/06/23 05:21:38;;;;;;;2.72;1.25;;;;;;;19.24;89.24;98364.38;4949462;28;20045;-80
2023/06/23 05:24:07;;;;;;;3.20;1.50;;;;;;;19.13;89.80;98374.66;4977177;28;21817;-79
2023/06/23 05:26:34;;;;;;;1.85;1.13;;;;;;;19.18;89.35;98377.22;4976656;28;20039;-79
2023/06/23 05:29:05;;;;;;;3.25;1.50;;;;;;;18.88;90.71;98375.41;4975357;28;20041;-77
2023/06/23 05:31:31;;;;;;;2.25;1.23;;;;;;;18.64;92.96;98383.91;4975831;28;20039;-77
2023/06/23 05:33:58;;;;;;;1.98;1.40;;;;;;;19.12;89.79;98381.19;4984048;28;20132;-77
2023/06/23 05:36:24;;;;;;;3.55;1.60;;;;;;;19.27;89.44;98383.47;4971517;28;20030;-77
2023/06/23 05:38:53;;;;;;;1.40;1.30;;;;;;;19.39;88.77;98393.72;4964077;28;20117;-76
2023/06/23 05:41:18;;;;;;;1.55;1.45;;;;;;;19.01;90.75;98398.84;4963278;28;20129;-77
2023/06/23 05:43:44;;;;;;;1.70;1.60;;;;;;;19.11;90.38;98384.22;4979403;28;20626;-78
2023/06/23 05:46:14;;;;;;;1.67;1.52;;;;;;;19.11;89.98;98389.66;4958510;28;20049;-78
2023/06/23 05:48:44;;;;;;;1.55;1.45;;;;;;;19.35;88.96;98395.47;4972899;28;20034;-78
2023/06/23 05:51:13;;;;;;;2.60;2.20;;;;;;;18.95;90.03;98396.59;4968979;28;20042;-77
2023/06/23 05:53:40;;;;;;;4.72;2.35;;;;;;;18.67;92.55;98409.53;4976034;28;20399;-77
2023/06/23 05:56:14;;;;;;;4.43;4.03;;;;;;;18.10;95.98;98408.53;4980884;28;20466;-79
2023/06/23 05:58:44;;;;;;;4.07;3.78;;;;;;;18.55;94.29;98412.00;4976580;28;20035;-77
2023/06/23 06:01:13;;;;;;;4.88;4.32;;;;;;;18.64;93.36;98424.47;4972502;28;20059;-78
2023/06/23 06:04:00;;;;;;;5.60;3.97;;;;;;;18.47;94.15;98418.16;4975315;28;20045;-78
2023/06/23 06:06:27;;;;;;;3.35;3.15;;;;;;;18.65;93.09;98436.84;4977695;28;20022;-78
2023/06/23 06:08:54;;;;;;;3.30;3.10;;;;;;;18.78;92.55;98445.22;4972685;28;20483;-78
2023/06/23 06:11:22;;;;;;;6.53;3.47;;;;;;;18.87;91.84;98438.72;4975940;28;20038;-78
2023/06/23 06:13:51;;;;;;;3.60;2.60;;;;;;;18.75;91.51;98451.22;4963021;28;20026;-79
2023/06/23 06:16:18;;;;;;;2.42;2.22;;;;;;;18.78;92.12;98456.03;4975798;28;20030;-78
2023/06/23 06:18:46;;;;;;;1.52;1.05;;;;;;;18.72;91.92;98468.09;4971053;28;20038;-78
2023/06/23 06:21:14;;;;;;;1.35;1.25;;;;;;;18.51;91.84;98459.69;4968747;28;20085;-78
2023/06/23 06:23:41;;;;;;;2.28;0.82;;;;;;;18.53;91.31;98460.97;4944704;28;20030;-78
2023/06/23 06:26:09;;;;;;;0.52;0.52;;;;;;;18.55;91.01;98472.28;4951542;28;20066;-78
2023/06/23 06:28:36;;;;;;;0.40;0.40;;;;;;;18.46;90.86;98471.41;4970797;28;20031;-79
2023/06/23 06:31:03;;;;;;;0.43;0.32;;;;;;;18.20;90.89;98477.72;4973586;28;20049;-78
2023/06/23 06:33:31;;;;;;;0.75;0.32;;;;;;;18.32;91.33;98486.88;4963221;28;20520;-78
2023/06/23 06:36:03;;;;;;;0.40;0.30;;;;;;;18.07;90.39;98483.97;4973312;28;20052;-78
2023/06/23 06:38:31;;;;;;;0.30;0.20;;;;;;;17.86;90.41;98491.75;4978767;28;20034;-78
2023/06/23 06:40:57;;;;;;;0.63;0.28;;;;;;;18.00;90.66;98505.22;4974334;28;20058;-79
2023/06/23 06:43:23;;;;;;;0.30;0.30;;;;;;;17.87;91.08;98523.84;4943421;28;20121;-79
2023/06/23 06:45:50;;;;;;;0.35;0.30;;;;;;;18.23;90.23;98531.16;4982620;28;20478;-79
2023/06/23 06:48:16;;;;;;;0.73;0.40;;;;;;;18.10;89.16;98532.81;4993746;28;20105;-78
2023/06/23 06:50:43;;;;;;;0.75;0.43;;;;;;;17.92;90.49;98537.25;4986243;28;20034;-77
2023/06/23 06:53:09;;;;;;;0.30;0.30;;;;;;;18.09;89.58;98549.28;4991344;28;20018;-77
2023/06/23 06:55:35;;;;;;;1.55;0.35;;;;;;;17.81;89.66;98562.06;4981145;28;20101;-77
2023/06/23 06:58:01;;;;;;;0.52;0.50;;;;;;;17.73;89.61;98565.47;4990375;28;20129;-78
2023/06/23 07:00:28;;;;;;;0.60;0.40;;;;;;;17.85;89.90;98585.44;4979634;28;20030;-78
2023/06/23 07:02:55;;;;;;;2.67;0.38;;;;;;;17.87;89.25;98585.13;4981472;28;20513;-77
2023/06/23 07:05:20;;;;;;;2.05;0.50;;;;;;;17.75;88.47;98598.38;4991366;28;20042;-77
2023/06/23 07:07:46;;;;;;;2.67;0.75;;;;;;;17.88;88.42;98594.84;4988706;28;20479;-78
2023/06/23 07:10:11;;;;;;;0.52;0.52;;;;;;;17.76;88.88;98606.16;4986635;28;20109;-78
2023/06/23 07:12:37;;;;;;;0.88;0.50;;;;;;;17.69;89.45;98618.47;4990627;28;20029;-78
2023/06/23 07:15:02;;;;;;;0.20;0.20;;;;;;;17.81;87.97;98618.75;4990826;28;20108;-78
2023/06/23 07:17:28;;;;;;;1.75;0.50;;;;;;;17.56;90.37;98617.34;4991155;28;20026;-78
2023/06/23 07:19:53;;;;;;;0.38;0.38;;;;;;;17.69;89.43;98634.66;4988563;28;20037;-79
2023/06/23 07:22:19;;;;;;;0.60;0.60;;;;;;;17.72;89.12;98634.06;4986265;28;20109;-78
2023/06/23 07:24:44;;;;;;;1.33;0.40;;;;;;;17.27;90.85;98638.38;4971007;28;20166;-77
2023/06/23 07:27:10;;;;;;;0.20;0.20;;;;;;;17.64;90.37;98654.47;4972981;28;20030;-78
2023/06/23 07:29:36;;;;;;;1.02;0.70;;;;;;;17.53;88.85;98655.75;4971456;28;20038;-77
2023/06/23 07:32:01;;;;;;;1.13;0.50;;;;;;;17.49;89.04;98662.00;4986645;28;20030;-77
2023/06/23 07:34:29;;;;;;;0.63;0.63;;;;;;;17.41;89.77;98668.88;4992001;28;20379;-77
2023/06/23 07:36:55;;;;;;;0.50;0.50;;;;;;;17.13;88.76;98654.53;4996528;28;20029;-77
2023/06/23 07:39:20;;;;;;;0.57;0.47;;;;;;;17.17;90.47;98668.22;4982849;28;20400;-77
2023/06/23 07:41:46;;;;;;;2.30;0.47;;;;;;;17.22;90.16;98690.50;4981691;28;20475;-77
2023/06/23 07:44:11;;;;;;;0.47;0.45;;;;;;;16.94;90.81;98677.22;4990173;28;20041;-78
2023/06/23 07:46:37;;;;;;;0.30;0.30;;;;;;;17.14;89.98;98690.38;4992031;28;20037;-78
2023/06/23 07:49:02;;;;;;;0.70;0.65;;;;;;;17.30;88.54;98699.03;4956911;28;20049;-78
2023/06/23 07:51:27;;;;;;;1.33;0.60;;;;;;;16.92;89.70;98700.97;4990512;28;20038;-79
2023/06/23 07:53:53;;;;;;;2.83;0.70;;;;;;;17.17;89.12;98689.78;4969327;28;20379;-78
2023/06/23 07:56:18;;;;;;;0.80;0.80;;;;;;;17.09;89.08;98707.44;4985788;28;20085;-78
2023/06/23 07:58:44;;;;;;;0.57;0.55;;;;;;;16.96;90.01;98713.59;4972386;28;20018;-78
2023/06/23 08:01:10;;;;;;;1.15;0.90;;;;;;;16.89;90.38;98731.22;4952714;28;20125;-77
2023/06/23 08:03:36;;;;;;;0.60;0.55;;;;;;;16.96;90.33;98732.47;4991929;28;20027;-78
2023/06/23 08:06:01;;;;;;;1.05;0.95;;;;;;;16.78;91.04;98743.22;4991477;28;20046;-78
2023/06/23 08:08:26;;;;;;;0.98;0.88;;;;;;;16.83;90.18;98756.66;4974316;28;20026;-78
2023/06/23 08:10:52;;;;;;;1.45;0.77;;;;;;;16.77;91.92;98768.59;4988138;28;20030;-79
2023/06/23 08:13:18;;;;;;;1.58;0.95;;;;;;;17.10;90.36;98770.28;4974181;28;20031;-78
2023/06/23 08:15:43;;;;;;;1.92;1.50;;;;;;;16.75;89.40;98776.19;4991184;28;20491;-78
2023/06/23 08:18:09;;;;;;;0.80;0.80;;;;;;;16.50;92.67;98785.38;4989622;28;20035;-78
2023/06/23 08:20:34;;;;;;;2.33;1.10;;;;;;;16.15;95.27;98799.22;4992219;28;20101;-78
2023/06/23 08:22:59;;;;;;;1.38;1.27;;;;;;;15.47;96.67;98795.81;4985933;28;20130;-77
2023/06/23 08:25:25;;;;;;;2.35;1.60;;;;;;;15.66;95.68;98818.28;4989893;28;20071;-78
2023/06/23 08:27:51;;;;;;;2.63;2.40;;;;;;;14.76;97.04;98817.75;4985565;28;20030;-77
2023/06/23 08:30:25;;;;;;;2.38;2.17;;;;;;;15.69;97.09;98826.56;4987465;28;20038;-78
2023/06/23 08:32:50;;;;;;;3.85;2.17;;;;;;;15.76;94.96;98837.00;4993967;28;20049;-79
2023/06/23 08:35:15;;;;;;;3.50;1.70;;;;;;;16.27;94.56;98846.22;4991975;28;20026;-78
2023/06/23 08:37:41;;;;;;;3.67;2.05;;;;;;;16.11;94.86;98857.44;4988760;28;20125;-78
2023/06/23 08:40:07;;;;;;;2.85;2.40;;;;;;;15.71;93.71;98866.66;4990674;28;20255;-78
2023/06/23 08:42:33;;;;;;;2.80;2.60;;;;;;;15.65;95.16;98865.91;4990276;28;20077;-78
2023/06/23 08:45:03;;;;;;;4.63;3.00;;;;;;;16.11;92.12;98877.09;4994826;28;20431;-78
2023/06/23 08:47:31;;;;;;;3.97;3.35;;;;;;;16.11;92.82;98876.28;4974736;28;20026;-78
2023/06/23 08:49:57;;;;;;;2.80;2.60;;;;;;;16.54;92.25;98886.09;4989099;28;20034;-78
2023/06/23 08:52:24;;;;;;;2.80;2.45;;;;;;;16.36;90.89;98902.94;4990902;28;20049;-78
2023/06/23 08:54:50;;;;;;;3.75;3.10;;;;;;;16.02;91.01;98903.00;4981973;28;20553;-78
2023/06/23 08:57:16;;;;;;;3.70;3.08;;;;;;;16.41;90.31;98905.59;4989858;28;20038;-78
2023/06/23 08:59:41;;;;;;;4.80;3.58;;;;;;;16.62;89.40;98908.94;4991603;28;20021;-78
2023/06/23 09:02:07;;;;;;;6.65;3.92;;;;;;;15.99;90.58;98924.31;4976909;28;20482;-78
2023/06/23 09:04:32;;;;;;;4.40;3.70;;;;;;;16.37;90.94;98923.44;4994286;28;20041;-78
2023/06/23 09:06:58;;;;;;;4.57;4.00;;;;;;;16.08;91.66;98938.75;4977138;28;20029;-78
2023/06/23 09:09:25;;;;;;;6.18;4.10;;;;;;;16.21;91.71;98940.81;4989669;28;20125;-78
2023/06/23 09:11:51;;;;;;;3.95;3.55;;;;;;;15.63;92.76;98961.44;4972831;28;20042;-78
2023/06/23 09:14:17;;;;;;;5.03;3.75;;;;;;;16.32;91.06;98961.19;4991394;28;20525;-78
2023/06/23 09:16:44;;;;;;;4.07;3.67;;;;;;;16.07;90.19;98967.59;4992241;28;20027;-78
2023/06/23 09:19:10;;;;;;;5.22;4.20;;;;;;;15.81;92.17;98981.50;4976337;28;20058;-78
2023/06/23 09:21:36;;;;;;;6.22;4.45;;;;;;;15.50;93.64;98994.31;4987712;28;20545;-78
2023/06/23 09:24:06;;;;;;;4.80;4.32;;;;;;;15.42;94.45;98998.34;4994173;28;20381;-77
2023/06/23 09:26:54;;;;;;;6.53;4.93;;;;;;;15.30;94.49;99013.19;4992467;28;20069;-79
2023/06/23 09:29:25;;;;;;;7.55;4.80;;;;;;;16.04;92.83;99021.19;4987492;28;20038;-78
2023/06/23 09:31:52;;;;;;;5.05;4.45;;;;;;;16.35;90.21;99026.09;4966190;28;20101;-79
2023/06/23 09:34:21;;;;;;;6.28;4.75;;;;;;;16.06;90.56;99021.72;4991455;28;20106;-79
2023/06/23 09:36:47;;;;;;;4.95;4.15;;;;;;;16.19;91.21;99029.97;4992182;28;20042;-78
2023/06/23 09:39:14;;;;;;;6.32;4.72;;;;;;;15.95;92.20;99042.50;4989048;28;20553;-78
2023/06/23 09:41:46;;;;;;;5.60;4.63;;;;;;;15.75;92.58;99043.44;4990912;28;20026;-79
2023/06/23 09:44:13;;;;;;;6.72;5.43;;;;;;;14.98;93.67;99046.63;4989834;28;20112;-78
2023/06/23 09:46:38;;;;;;;4.95;4.45;;;;;;;15.17;94.33;99049.56;4991693;28;20038;-78
2023/06/23 09:49:06;;;;;;;6.35;5.13;;;;;;;15.73;93.81;99055.53;4988618;28;20069;-78
2023/06/23 09:51:36;;;;;;;5.30;4.80;;;;;;;16.09;91.59;99062.38;4984404;28;20038;-78
2023/06/23 09:54:01;;;;;;;5.60;4.63;;;;;;;15.95;90.99;99063.25;4990624;28;20058;-78
2023/06/23 09:56:26;;;;;;;5.32;4.35;;;;;;;16.59;91.08;99076.59;4975101;28;20501;-77
2023/06/23 09:58:53;;;;;;;6.05;4.68;;;;;;;16.27;91.79;99083.25;4991237;28;20034;-78
2023/06/23 10:01:19;;;;;;;6.93;5.03;;;;;;;15.65;93.39;99080.34;4988813;28;20018;-78
2023/06/23 10:03:49;;;;;;;4.82;4.43;;;;;;;16.14;92.94;99077.69;4991012;28;20149;-78
2023/06/23 10:06:32;;;;;;;4.70;4.30;;;;;;;15.81;92.28;99089.97;4990920;28;20136;-78
2023/06/23 10:08:59;;;;;;;7.63;5.68;;;;;;;15.44;95.55;99105.72;4991218;28;20022;-77
2023/06/23 10:11:32;;;;;;;7.00;4.60;;;;;;;15.71;93.31;99096.19;4991194;28;20023;-78
2023/06/23 10:14:01;;;;;;;6.90;4.45;;;;;;;16.22;91.65;99109.41;4990730;28;20054;-78
2023/06/23 10:16:28;;;;;;;5.68;4.88;;;;;;;15.66;91.55;99120.44;4986901;28;20037;-78
2023/06/23 10:18:54;;;;;;;5.57;4.30;;;;;;;16.01;93.01;99129.47;4990452;28;20124;-78
2023/06/23 10:21:21;;;;;;;5.65;4.95;;;;;;;15.46;94.48;99130.47;4974487;28;20034;-78
2023/06/23 10:23:48;;;;;;;6.18;5.38;;;;;;;15.25;93.37;99144.97;4985208;28;20531;-77
2023/06/23 10:26:15;;;;;;;7.57;5.13;;;;;;;15.44;94.39;99146.06;4971503;28;20666;-78
2023/06/23 10:28:45;;;;;;;6.47;5.45;;;;;;;15.33;92.62;99137.16;4971557;28;20071;-77
2023/06/23 10:31:12;;;;;;;5.35;4.40;;;;;;;15.95;93.16;99166.34;4931443;28;1175727;-78
2023/06/23 10:33:40;;;;;;;6.55;5.07;;;;;;;16.13;91.72;99146.91;4983336;28;20090;-77
2023/06/23 10:36:07;;;;;;;7.25;4.57;;;;;;;15.92;92.16;99161.53;4975827;28;20080;-77
2023/06/23 10:38:33;;;;;;;5.28;4.78;;;;;;;15.97;91.59;99156.13;4991599;28;20080;-77
2023/06/23 10:41:00;;;;;;;6.40;5.28;;;;;;;16.37;89.41;99166.72;4971385;28;20032;-78
2023/06/23 10:43:33;;;;;;;6.90;5.50;;;;;;;16.42;89.50;99180.13;4990148;28;20116;-77
2023/06/23 10:46:00;;;;;;;7.53;5.90;;;;;;;16.57;89.39;99179.28;4992687;28;20022;-78
2023/06/23 10:48:27;;;;;;;6.95;5.38;;;;;;;16.21;89.84;99178.63;4990826;28;20034;-78
2023/06/23 10:50:53;;;;;;;8.63;5.35;;;;;;;16.26;90.37;99180.50;4992850;28;20022;-78
2023/06/23 10:53:24;;;;;;;6.82;5.32;;;;;;;16.35;90.45;99187.72;4973016;28;20026;-79
2023/06/23 10:55:55;;;;;;;6.78;4.75;;;;;;;16.48;89.37;99189.81;4987648;28;20453;-79
2023/06/23 10:58:21;;;;;;;8.05;5.13;;;;;;;16.45;89.79;99203.84;4981285;28;20391;-79
2023/06/23 11:00:59;;;;;;;4.47;4.05;;;;;;;16.55;88.37;99208.41;5010880;28;20022;-79
2023/06/23 11:03:31;;;;;;;6.30;4.32;;;;;;;16.55;88.68;99212.97;5010736;28;20037;-78
2023/06/23 11:05:59;;;;;;;6.10;4.63;;;;;;;16.59;87.74;99212.16;5004350;28;20046;-78
2023/06/23 11:08:31;;;;;;;6.07;4.28;;;;;;;16.53;88.71;99224.06;4979531;28;20041;-78
2023/06/23 11:10:59;;;;;;;6.95;4.82;;;;;;;16.56;88.07;99223.47;4991063;28;20074;-78
2023/06/23 11:13:43;;;;;;;5.15;4.65;;;;;;;16.20;89.79;99232.78;4986065;28;20470;-77
2023/06/23 11:16:25;;;;;;;6.47;4.40;;;;;;;16.15;89.15;99225.53;4980552;28;20030;-78
2023/06/23 11:18:53;;;;;;;7.20;4.93;;;;;;;15.88;90.00;99229.66;4981210;28;20118;-78
2023/06/23 11:21:25;;;;;;;7.47;5.05;;;;;;;16.21;90.64;99243.28;4973909;28;20042;-78
2023/06/23 11:24:10;;;;;;;5.50;4.63;;;;;;;16.23;90.01;99249.19;4989783;28;20035;-78
2023/06/23 11:26:36;;;;;;;5.68;5.07;;;;;;;15.69;90.59;99240.19;4976984;28;20490;-78
2023/06/23 11:29:08;;;;;;;5.15;4.47;;;;;;;16.23;89.61;99257.28;4992187;28;20478;-78
2023/06/23 11:31:33;;;;;;;6.03;4.85;;;;;;;16.31;88.35;99261.31;4972791;28;20039;-79
2023/06/23 11:34:04;;;;;;;7.55;4.97;;;;;;;16.12;89.88;99263.78;4955345;28;20061;-79
2023/06/23 11:36:31;;;;;;;8.10;5.15;;;;;;;16.20;89.10;99265.91;4978639;28;20081;-78
2023/06/23 11:38:57;;;;;;;6.85;4.57;;;;;;;16.32;89.92;99273.66;4976671;28;20027;-79